Barefoot Beach, Florida
Current Conditions -  °F | °C
As of 6:53 PM on Thursday 27 Nov 2014 (Local Time) from KRSW Reporting Station
Clear Clear  
Wind Chill: 63°   Ceiling: Unl
Heat Index: 63°   Visibility: 10mi
Dew Point: 50°   Wind: 6mph
Humidity: 63%   Direction: 340°NNW
Pressure: 30.21"   Gusts: NA
Location:  26.3649°N, 81.8304°W
Report Text: KRSW 272353Z 34005KT 10SM CLR 17/10 A3021 RMK AO2 SLP228 T01720100 10228 20172 51014
Loading
Personal Weather Stations






























Interactive Weather Map New forecast layout! Learn more

10-Day Weather Forecast

Advertisements
Track Severe Weather on mobile